Annawan, Illinois
Current Conditions -  °F | °C
As of 6:35 PM on Wednesday 26 Nov 2014 (Local Time) from KSQI Reporting Station
Overcast Overcast  
Wind Chill: -9°   Ceiling: 1500
Heat Index: -4°   Visibility: 10mi
Dew Point: -7°   Wind: 8mph
Humidity: 80%   Direction: 20°NNE
Pressure: 30.17"   Gusts: NA
Location:  41.4°N, 89.9°W
Report Text: KSQI 270035Z 02007KT 10SM OVC015 M04/M07 A3017 RMK AO1
Loading
Personal Weather Stations






























Interactive Weather Map New forecast layout! Learn more

10-Day Weather Forecast

Advertisements
Track Severe Weather on mobile